sensor_id;sensor_type;location;lat;lon;timestamp;pressure;altitude;pressure_sealevel;temperature;humidity
31346;BME280;21711;49.708;18.568;2023-07-29T00:00:17;96856.03;;;16.83;100.00
31346;BME280;21711;49.708;18.568;2023-07-29T00:02:46;96853.47;;;16.87;100.00
31346;BME280;21711;49.708;18.568;2023-07-29T00:05:13;96854.28;;;16.87;100.00
31346;BME280;21711;49.708;18.568;2023-07-29T00:07:41;96857.84;;;16.91;100.00
31346;BME280;21711;49.708;18.568;2023-07-29T00:10:08;96852.66;;;16.95;100.00
31346;BME280;21711;49.708;18.568;2023-07-29T00:12:36;96858.00;;;16.95;100.00
31346;BME280;21711;49.708;18.568;2023-07-29T00:15:03;96859.75;;;16.91;100.00
31346;BME280;21711;49.708;18.568;2023-07-29T00:17:31;96859.63;;;16.87;100.00
31346;BME280;21711;49.708;18.568;2023-07-29T00:19:58;96857.50;;;16.93;100.00
31346;BME280;21711;49.708;18.568;2023-07-29T00:22:25;96854.53;;;16.94;100.00
31346;BME280;21711;49.708;18.568;2023-07-29T00:24:53;96851.19;;;17.06;100.00
31346;BME280;21711;49.708;18.568;2023-07-29T00:27:25;96857.13;;;17.03;100.00
31346;BME280;21711;49.708;18.568;2023-07-29T00:29:52;96861.72;;;17.03;100.00
31346;BME280;21711;49.708;18.568;2023-07-29T00:32:19;96850.72;;;17.04;100.00
31346;BME280;21711;49.708;18.568;2023-07-29T00:34:47;96850.22;;;17.11;100.00
31346;BME280;21711;49.708;18.568;2023-07-29T00:37:14;96850.47;;;17.18;100.00
31346;BME280;21711;49.708;18.568;2023-07-29T00:39:41;96855.00;;;17.18;100.00
31346;BME280;21711;49.708;18.568;2023-07-29T00:42:09;96853.41;;;17.26;100.00
31346;BME280;21711;49.708;18.568;2023-07-29T00:44:36;96858.88;;;17.29;100.00
31346;BME280;21711;49.708;18.568;2023-07-29T00:47:05;96856.09;;;17.26;100.00
31346;BME280;21711;49.708;18.568;2023-07-29T00:49:33;96854.38;;;17.21;100.00
31346;BME280;21711;49.708;18.568;2023-07-29T00:52:02;96856.13;;;17.17;100.00
31346;BME280;21711;49.708;18.568;2023-07-29T00:54:29;96853.41;;;17.26;100.00
31346;BME280;21711;49.708;18.568;2023-07-29T00:56:57;96855.81;;;17.18;100.00
31346;BME280;21711;49.708;18.568;2023-07-29T00:59:26;96851.56;;;17.17;100.00
31346;BME280;21711;49.708;18.568;2023-07-29T01:01:55;96859.28;;;17.19;100.00
31346;BME280;21711;49.708;18.568;2023-07-29T01:04:23;96858.94;;;17.20;100.00
31346;BME280;21711;49.708;18.568;2023-07-29T01:07:48;96855.69;;;17.15;100.00
31346;BME280;21711;49.708;18.568;2023-07-29T01:10:21;96849.66;;;17.18;100.00
31346;BME280;21711;49.708;18.568;2023-07-29T01:15:54;96854.31;;;17.08;100.00
31346;BME280;21711;49.708;18.568;2023-07-29T01:18:32;96857.31;;;17.07;100.00
31346;BME280;21711;49.708;18.568;2023-07-29T01:21:08;96852.28;;;17.05;100.00
31346;BME280;21711;49.708;18.568;2023-07-29T01:23:37;96855.88;;;17.09;100.00
31346;BME280;21711;49.708;18.568;2023-07-29T01:26:05;96859.81;;;17.03;100.00
31346;BME280;21711;49.708;18.568;2023-07-29T01:28:33;96860.34;;;16.96;100.00
31346;BME280;21711;49.708;18.568;2023-07-29T01:31:13;96861.16;;;16.88;100.00
31346;BME280;21711;49.708;18.568;2023-07-29T01:33:56;96861.50;;;16.87;100.00
31346;BME280;21711;49.708;18.568;2023-07-29T01:36:29;96863.53;;;16.90;100.00
31346;BME280;21711;49.708;18.568;2023-07-29T01:38:58;96859.13;;;16.85;100.00
31346;BME280;21711;49.708;18.568;2023-07-29T01:41:27;96865.41;;;16.89;100.00
31346;BME280;21711;49.708;18.568;2023-07-29T01:43:56;96853.53;;;17.08;100.00
31346;BME280;21711;49.708;18.568;2023-07-29T01:46:24;96859.31;;;17.10;100.00
31346;BME280;21711;49.708;18.568;2023-07-29T01:48:52;96855.41;;;17.07;100.00
31346;BME280;21711;49.708;18.568;2023-07-29T01:51:20;96858.41;;;17.06;100.00
31346;BME280;21711;49.708;18.568;2023-07-29T01:53:48;96852.75;;;17.07;100.00
31346;BME280;21711;49.708;18.568;2023-07-29T01:56:16;96855.41;;;17.07;100.00
31346;BME280;21711;49.708;18.568;2023-07-29T01:58:51;96855.88;;;17.09;100.00
31346;BME280;21711;49.708;18.568;2023-07-29T02:01:18;96855.47;;;17.20;100.00
31346;BME280;21711;49.708;18.568;2023-07-29T02:03:46;96849.66;;;17.18;100.00
31346;BME280;21711;49.708;18.568;2023-07-29T02:06:13;96851.38;;;17.22;100.00
31346;BME280;21711;49.708;18.568;2023-07-29T02:08:40;96853.06;;;17.27;100.00
31346;BME280;21711;49.708;18.568;2023-07-29T02:11:08;96844.72;;;17.29;100.00
31346;BME280;21711;49.708;18.568;2023-07-29T02:13:35;96853.97;;;17.31;100.00
31346;BME280;21711;49.708;18.568;2023-07-29T02:16:03;96853.84;;;17.28;100.00
31346;BME280;21711;49.708;18.568;2023-07-29T02:18:30;96857.44;;;17.32;100.00
31346;BME280;21711;49.708;18.568;2023-07-29T02:20:58;96856.84;;;17.26;100.00
31346;BME280;21711;49.708;18.568;2023-07-29T02:23:25;96855.41;;;17.29;100.00
31346;BME280;21711;49.708;18.568;2023-07-29T02:25:53;96851.38;;;17.22;100.00
31346;BME280;21711;49.708;18.568;2023-07-29T02:28:20;96855.69;;;17.15;100.00
31346;BME280;21711;49.708;18.568;2023-07-29T02:31:16;96865.00;;;17.08;100.00
31346;BME280;21711;49.708;18.568;2023-07-29T02:33:45;96849.41;;;17.11;100.00
31346;BME280;21711;49.708;18.568;2023-07-29T02:36:13;96855.72;;;17.06;100.00
31346;BME280;21711;49.708;18.568;2023-07-29T02:38:42;96851.03;;;17.03;100.00
31346;BME280;21711;49.708;18.568;2023-07-29T02:41:10;96863.59;;;17.02;100.00
31346;BME280;21711;49.708;18.568;2023-07-29T02:43:39;96858.44;;;16.97;100.00
31346;BME280;21711;49.708;18.568;2023-07-29T02:46:09;96860.00;;;16.98;100.00
31346;BME280;21711;49.708;18.568;2023-07-29T02:48:36;96858.50;;;16.88;100.00
31346;BME280;21711;49.708;18.568;2023-07-29T02:51:03;96861.69;;;16.81;100.00
31346;BME280;21711;49.708;18.568;2023-07-29T02:53:31;96864.66;;;16.80;100.00
31346;BME280;21711;49.708;18.568;2023-07-29T02:55:58;96857.09;;;16.82;100.00
31346;BME280;21711;49.708;18.568;2023-07-29T02:58:25;96863.19;;;16.91;100.00
31346;BME280;21711;49.708;18.568;2023-07-29T03:00:53;96862.28;;;16.87;100.00
31346;BME280;21711;49.708;18.568;2023-07-29T03:03:21;96867.22;;;16.76;100.00
31346;BME280;21711;49.708;18.568;2023-07-29T03:05:48;96871.94;;;16.70;100.00
31346;BME280;21711;49.708;18.568;2023-07-29T03:08:15;96873.81;;;16.70;100.00
31346;BME280;21711;49.708;18.568;2023-07-29T03:10:43;96875.59;;;16.66;100.00
31346;BME280;21711;49.708;18.568;2023-07-29T03:13:10;96874.19;;;16.60;100.00
31346;BME280;21711;49.708;18.568;2023-07-29T03:15:37;96872.91;;;16.66;100.00
31346;BME280;21711;49.708;18.568;2023-07-29T03:18:05;96863.00;;;16.66;100.00
31346;BME280;21711;49.708;18.568;2023-07-29T03:20:33;96862.75;;;16.59;100.00
31346;BME280;21711;49.708;18.568;2023-07-29T03:23:00;96869.03;;;16.54;100.00
31346;BME280;21711;49.708;18.568;2023-07-29T03:25:27;96869.09;;;16.46;100.00
31346;BME280;21711;49.708;18.568;2023-07-29T03:27:55;96870.03;;;16.41;100.00
31346;BME280;21711;49.708;18.568;2023-07-29T03:30:23;96868.47;;;16.40;100.00
31346;BME280;21711;49.708;18.568;2023-07-29T03:32:52;96871.75;;;16.46;100.00
31346;BME280;21711;49.708;18.568;2023-07-29T03:35:20;96865.31;;;16.47;100.00
31346;BME280;21711;49.708;18.568;2023-07-29T03:37:47;96872.50;;;16.46;100.00
31346;BME280;21711;49.708;18.568;2023-07-29T03:40:15;96878.16;;;16.53;100.00
31346;BME280;21711;49.708;18.568;2023-07-29T03:42:42;96883.47;;;16.53;100.00
31346;BME280;21711;49.708;18.568;2023-07-29T03:45:09;96874.66;;;16.62;100.00
31346;BME280;21711;49.708;18.568;2023-07-29T03:47:37;96875.13;;;16.64;100.00
31346;BME280;21711;49.708;18.568;2023-07-29T03:50:05;96881.19;;;16.73;100.00
31346;BME280;21711;49.708;18.568;2023-07-29T03:52:32;96871.53;;;16.90;100.00
31346;BME280;21711;49.708;18.568;2023-07-29T03:55:00;96877.09;;;17.06;100.00
31346;BME280;21711;49.708;18.568;2023-07-29T03:57:27;96880.97;;;17.17;100.00
31346;BME280;21711;49.708;18.568;2023-07-29T03:59:56;96884.94;;;17.32;100.00
31346;BME280;21711;49.708;18.568;2023-07-29T04:02:23;96886.69;;;17.50;100.00
31346;BME280;21711;49.708;18.568;2023-07-29T04:04:51;96879.53;;;17.96;100.00
31346;BME280;21711;49.708;18.568;2023-07-29T04:07:19;96886.78;;;18.55;100.00
31346;BME280;21711;49.708;18.568;2023-07-29T04:09:46;96886.88;;;18.96;100.00
31346;BME280;21711;49.708;18.568;2023-07-29T04:12:14;96890.56;;;19.16;100.00
31346;BME280;21711;49.708;18.568;2023-07-29T04:14:41;96895.69;;;19.50;100.00
31346;BME280;21711;49.708;18.568;2023-07-29T04:17:09;96897.53;;;19.74;100.00
31346;BME280;21711;49.708;18.568;2023-07-29T04:19:36;96905.09;;;20.13;100.00
31346;BME280;21711;49.708;18.568;2023-07-29T04:22:04;96901.19;;;20.43;100.00
31346;BME280;21711;49.708;18.568;2023-07-29T04:24:31;96909.75;;;20.97;100.00
31346;BME280;21711;49.708;18.568;2023-07-29T04:26:59;96909.56;;;21.06;100.00
31346;BME280;21711;49.708;18.568;2023-07-29T04:29:26;96913.69;;;21.19;100.00
31346;BME280;21711;49.708;18.568;2023-07-29T04:31:53;96914.00;;;21.34;100.00
31346;BME280;21711;49.708;18.568;2023-07-29T04:34:21;96909.81;;;21.36;100.00
31346;BME280;21711;49.708;18.568;2023-07-29T04:36:48;96914.28;;;21.28;100.00
31346;BME280;21711;49.708;18.568;2023-07-29T04:39:16;96918.38;;;21.22;100.00
31346;BME280;21711;49.708;18.568;2023-07-29T04:41:44;96905.00;;;21.26;100.00
31346;BME280;21711;49.708;18.568;2023-07-29T04:44:11;96918.81;;;21.44;100.00
31346;BME280;21711;49.708;18.568;2023-07-29T04:46:38;96913.16;;;21.49;100.00
31346;BME280;21711;49.708;18.568;2023-07-29T04:49:06;96916.56;;;21.46;100.00
31346;BME280;21711;49.708;18.568;2023-07-29T04:51:33;96919.25;;;21.66;100.00
31346;BME280;21711;49.708;18.568;2023-07-29T04:54:00;96922.19;;;22.20;100.00
31346;BME280;21711;49.708;18.568;2023-07-29T04:56:28;96921.66;;;23.08;100.00
31346;BME280;21711;49.708;18.568;2023-07-29T04:58:55;96924.75;;;23.68;100.00
31346;BME280;21711;49.708;18.568;2023-07-29T05:01:22;96921.94;;;23.91;100.00
31346;BME280;21711;49.708;18.568;2023-07-29T05:03:51;96935.31;;;24.60;100.00
31346;BME280;21711;49.708;18.568;2023-07-29T05:06:19;96933.06;;;24.65;100.00
31346;BME280;21711;49.708;18.568;2023-07-29T05:08:47;96936.72;;;24.84;100.00
31346;BME280;21711;49.708;18.568;2023-07-29T05:11:14;96937.41;;;25.33;100.00
31346;BME280;21711;49.708;18.568;2023-07-29T05:13:42;96941.38;;;25.58;100.00
31346;BME280;21711;49.708;18.568;2023-07-29T05:16:11;96943.47;;;26.08;100.00
31346;BME280;21711;49.708;18.568;2023-07-29T05:18:39;96941.63;;;26.63;100.00
31346;BME280;21711;49.708;18.568;2023-07-29T05:21:07;96947.44;;;26.73;100.00
31346;BME280;21711;49.708;18.568;2023-07-29T05:23:36;96945.81;;;27.34;100.00
31346;BME280;21711;49.708;18.568;2023-07-29T05:26:03;96939.19;;;27.46;90.37
31346;BME280;21711;49.708;18.568;2023-07-29T05:28:31;96947.84;;;26.57;95.22
31346;BME280;21711;49.708;18.568;2023-07-29T05:31:01;96941.00;;;25.59;99.11
31346;BME280;21711;49.708;18.568;2023-07-29T05:33:29;96939.63;;;25.20;100.00
31346;BME280;21711;49.708;18.568;2023-07-29T05:35:57;96936.09;;;25.09;100.00
31346;BME280;21711;49.708;18.568;2023-07-29T05:38:25;96932.72;;;24.71;100.00
31346;BME280;21711;49.708;18.568;2023-07-29T05:40:53;96931.38;;;24.50;100.00
31346;BME280;21711;49.708;18.568;2023-07-29T05:43:20;96933.78;;;24.17;100.00
31346;BME280;21711;49.708;18.568;2023-07-29T05:45:47;96931.25;;;23.97;100.00
31346;BME280;21711;49.708;18.568;2023-07-29T05:48:15;96932.88;;;24.06;100.00
31346;BME280;21711;49.708;18.568;2023-07-29T05:50:42;96935.94;;;24.42;100.00
31346;BME280;21711;49.708;18.568;2023-07-29T05:53:10;96933.75;;;24.55;100.00
31346;BME280;21711;49.708;18.568;2023-07-29T05:55:37;96936.28;;;25.45;100.00
31346;BME280;21711;49.708;18.568;2023-07-29T05:58:04;96945.91;;;26.57;96.03
31346;BME280;21711;49.708;18.568;2023-07-29T06:00:32;96947.84;;;28.08;89.61
31346;BME280;21711;49.708;18.568;2023-07-29T06:03:00;96952.78;;;29.26;66.96
31346;BME280;21711;49.708;18.568;2023-07-29T06:05:28;96960.19;;;30.99;57.55
31346;BME280;21711;49.708;18.568;2023-07-29T06:07:55;96956.88;;;32.29;54.79
31346;BME280;21711;49.708;18.568;2023-07-29T06:10:23;96956.28;;;32.88;52.41
31346;BME280;21711;49.708;18.568;2023-07-29T06:12:50;96969.78;;;33.84;49.69
31346;BME280;21711;49.708;18.568;2023-07-29T06:15:18;96964.94;;;33.75;47.19
31346;BME280;21711;49.708;18.568;2023-07-29T06:17:49;96968.13;;;32.31;49.72
31346;BME280;21711;49.708;18.568;2023-07-29T06:20:17;96968.63;;;30.84;54.00
31346;BME280;21711;49.708;18.568;2023-07-29T06:22:44;96965.00;;;30.67;55.51
31346;BME280;21711;49.708;18.568;2023-07-29T06:25:12;96963.31;;;30.49;58.03
31346;BME280;21711;49.708;18.568;2023-07-29T06:27:39;96954.91;;;30.12;59.19
31346;BME280;21711;49.708;18.568;2023-07-29T06:30:07;96959.47;;;29.88;61.38
31346;BME280;21711;49.708;18.568;2023-07-29T06:32:35;96959.16;;;29.12;62.36
31346;BME280;21711;49.708;18.568;2023-07-29T06:35:02;96957.06;;;28.82;64.36
31346;BME280;21711;49.708;18.568;2023-07-29T06:37:30;96966.41;;;28.81;65.99
31346;BME280;21711;49.708;18.568;2023-07-29T06:39:57;96967.31;;;29.86;60.55
31346;BME280;21711;49.708;18.568;2023-07-29T06:42:25;96973.69;;;32.27;54.66
31346;BME280;21711;49.708;18.568;2023-07-29T06:44:52;96981.25;;;33.66;47.49
31346;BME280;21711;49.708;18.568;2023-07-29T06:47:19;96976.63;;;34.18;46.19
31346;BME280;21711;49.708;18.568;2023-07-29T06:49:46;96980.28;;;33.13;49.54
31346;BME280;21711;49.708;18.568;2023-07-29T06:52:14;96976.28;;;30.93;52.17
31346;BME280;21711;49.708;18.568;2023-07-29T06:54:42;96968.66;;;30.01;58.53
31346;BME280;21711;49.708;18.568;2023-07-29T06:57:09;96959.34;;;28.87;62.03
31346;BME280;21711;49.708;18.568;2023-07-29T06:59:36;96961.06;;;28.06;62.86
31346;BME280;21711;49.708;18.568;2023-07-29T07:02:04;96969.72;;;27.86;68.49
31346;BME280;21711;49.708;18.568;2023-07-29T07:04:32;96962.47;;;27.39;68.77
31346;BME280;21711;49.708;18.568;2023-07-29T07:06:59;96967.19;;;26.88;70.32
31346;BME280;21711;49.708;18.568;2023-07-29T07:09:27;96966.00;;;26.38;70.76
31346;BME280;21711;49.708;18.568;2023-07-29T07:11:55;96971.59;;;25.71;74.36
31346;BME280;21711;49.708;18.568;2023-07-29T07:14:22;96956.00;;;25.46;77.04
31346;BME280;21711;49.708;18.568;2023-07-29T07:16:49;96963.72;;;25.40;76.89
31346;BME280;21711;49.708;18.568;2023-07-29T07:19:17;96957.00;;;25.16;79.31
31346;BME280;21711;49.708;18.568;2023-07-29T07:21:44;96957.34;;;25.07;80.64
31346;BME280;21711;49.708;18.568;2023-07-29T07:24:12;96953.28;;;24.82;80.12
31346;BME280;21711;49.708;18.568;2023-07-29T07:26:39;96961.19;;;24.61;83.90
31346;BME280;21711;49.708;18.568;2023-07-29T07:29:06;96952.34;;;24.22;84.12
31346;BME280;21711;49.708;18.568;2023-07-29T07:31:34;96955.06;;;24.22;84.31
31346;BME280;21711;49.708;18.568;2023-07-29T07:34:02;96956.94;;;24.18;89.72
31346;BME280;21711;49.708;18.568;2023-07-29T07:36:30;96958.22;;;23.94;88.02
31346;BME280;21711;49.708;18.568;2023-07-29T07:38:58;96956.88;;;23.76;92.22
31346;BME280;21711;49.708;18.568;2023-07-29T07:41:25;96965.41;;;23.82;97.41
31346;BME280;21711;49.708;18.568;2023-07-29T07:43:52;96958.31;;;23.70;89.76
31346;BME280;21711;49.708;18.568;2023-07-29T07:46:20;96956.81;;;23.73;93.98
31346;BME280;21711;49.708;18.568;2023-07-29T07:48:47;96963.69;;;23.67;92.09
31346;BME280;21711;49.708;18.568;2023-07-29T07:51:15;96961.72;;;23.63;96.53
31346;BME280;21711;49.708;18.568;2023-07-29T07:53:42;96962.72;;;23.51;93.93
31346;BME280;21711;49.708;18.568;2023-07-29T07:56:09;96962.50;;;23.64;92.36
31346;BME280;21711;49.708;18.568;2023-07-29T07:58:38;96954.66;;;23.86;90.93
31346;BME280;21711;49.708;18.568;2023-07-29T08:01:06;96957.06;;;23.95;93.77
31346;BME280;21711;49.708;18.568;2023-07-29T08:03:35;96962.72;;;24.16;89.17
31346;BME280;21711;49.708;18.568;2023-07-29T08:06:03;96957.94;;;24.06;89.99
31346;BME280;21711;49.708;18.568;2023-07-29T08:08:34;96948.31;;;24.05;88.45
31346;BME280;21711;49.708;18.568;2023-07-29T08:11:01;96957.38;;;24.20;86.82
31346;BME280;21711;49.708;18.568;2023-07-29T08:13:29;96949.69;;;24.26;84.89
31346;BME280;21711;49.708;18.568;2023-07-29T08:15:56;96954.03;;;24.38;86.42
31346;BME280;21711;49.708;18.568;2023-07-29T08:18:23;96959.06;;;24.39;84.74
31346;BME280;21711;49.708;18.568;2023-07-29T08:20:59;96959.00;;;24.74;83.33
31346;BME280;21711;49.708;18.568;2023-07-29T08:23:33;96956.38;;;24.85;80.98
31346;BME280;21711;49.708;18.568;2023-07-29T08:26:04;96951.31;;;24.79;82.27
31346;BME280;21711;49.708;18.568;2023-07-29T08:28:37;96956.19;;;25.08;78.77
31346;BME280;21711;49.708;18.568;2023-07-29T08:31:05;96954.56;;;25.00;79.68
31346;BME280;21711;49.708;18.568;2023-07-29T08:33:33;96953.63;;;25.33;81.80
31346;BME280;21711;49.708;18.568;2023-07-29T08:36:02;96956.41;;;25.48;77.61
31346;BME280;21711;49.708;18.568;2023-07-29T08:38:30;96963.50;;;25.78;76.95
31346;BME280;21711;49.708;18.568;2023-07-29T08:41:16;96951.56;;;25.90;77.94
31346;BME280;21711;49.708;18.568;2023-07-29T08:44:06;96951.50;;;25.72;79.04
31346;BME280;21711;49.708;18.568;2023-07-29T08:46:39;96945.94;;;25.43;78.08
31346;BME280;21711;49.708;18.568;2023-07-29T08:49:08;96940.53;;;25.46;78.90
31346;BME280;21711;49.708;18.568;2023-07-29T08:51:36;96949.50;;;25.58;79.08
31346;BME280;21711;49.708;18.568;2023-07-29T08:54:04;96942.75;;;25.23;80.48
31346;BME280;21711;49.708;18.568;2023-07-29T08:56:31;96940.75;;;25.12;81.52
31346;BME280;21711;49.708;18.568;2023-07-29T08:58:59;96936.13;;;25.16;81.68
31346;BME280;21711;49.708;18.568;2023-07-29T09:01:29;96941.38;;;24.91;83.17
31346;BME280;21711;49.708;18.568;2023-07-29T09:03:58;96934.69;;;24.74;87.22
31346;BME280;21711;49.708;18.568;2023-07-29T09:06:26;96934.53;;;24.55;88.24
31346;BME280;21711;49.708;18.568;2023-07-29T09:08:55;96940.03;;;24.70;88.16
31346;BME280;21711;49.708;18.568;2023-07-29T09:11:25;96934.53;;;24.59;88.18
31346;BME280;21711;49.708;18.568;2023-07-29T09:13:53;96930.25;;;24.51;89.97
31346;BME280;21711;49.708;18.568;2023-07-29T09:16:21;96929.91;;;24.60;89.66
31346;BME280;21711;49.708;18.568;2023-07-29T09:18:50;96927.81;;;24.84;86.50
31346;BME280;21711;49.708;18.568;2023-07-29T09:21:23;96927.59;;;25.07;87.35
31346;BME280;21711;49.708;18.568;2023-07-29T09:23:51;96933.84;;;25.26;85.17
31346;BME280;21711;49.708;18.568;2023-07-29T09:26:28;96933.22;;;25.54;83.94
31346;BME280;21711;49.708;18.568;2023-07-29T09:28:57;96941.47;;;25.80;80.19
31346;BME280;21711;49.708;18.568;2023-07-29T09:31:27;96932.63;;;25.97;79.63
31346;BME280;21711;49.708;18.568;2023-07-29T09:34:04;96932.34;;;26.61;77.04
31346;BME280;21711;49.708;18.568;2023-07-29T09:36:33;96933.47;;;26.82;74.54
31346;BME280;21711;49.708;18.568;2023-07-29T09:39:02;96929.59;;;26.90;72.80
31346;BME280;21711;49.708;18.568;2023-07-29T09:41:30;96923.34;;;27.26;70.66
31346;BME280;21711;49.708;18.568;2023-07-29T09:44:03;96923.13;;;27.91;71.82
31346;BME280;21711;49.708;18.568;2023-07-29T09:46:38;96918.28;;;28.74;65.16
31346;BME280;21711;49.708;18.568;2023-07-29T09:49:07;96917.44;;;28.81;65.11
31346;BME280;21711;49.708;18.568;2023-07-29T09:51:39;96913.50;;;28.89;66.60
31346;BME280;21711;49.708;18.568;2023-07-29T09:54:07;96906.38;;;29.03;65.67
31346;BME280;21711;49.708;18.568;2023-07-29T09:56:41;96903.06;;;28.34;69.48
31346;BME280;21711;49.708;18.568;2023-07-29T09:59:10;96905.66;;;27.92;67.66
31346;BME280;21711;49.708;18.568;2023-07-29T10:01:39;96910.97;;;28.10;70.54
31346;BME280;21711;49.708;18.568;2023-07-29T10:04:08;96907.91;;;28.61;68.00
31346;BME280;21711;49.708;18.568;2023-07-29T10:06:40;96908.50;;;28.80;68.51
31346;BME280;21711;49.708;18.568;2023-07-29T10:09:08;96912.22;;;29.01;65.91
31346;BME280;21711;49.708;18.568;2023-07-29T10:11:38;96905.63;;;28.98;63.14
31346;BME280;21711;49.708;18.568;2023-07-29T10:14:06;96905.56;;;28.64;66.09
31346;BME280;21711;49.708;18.568;2023-07-29T10:16:40;96902.34;;;29.14;64.40
31346;BME280;21711;49.708;18.568;2023-07-29T10:19:10;96907.91;;;29.38;61.65
31346;BME280;21711;49.708;18.568;2023-07-29T10:21:39;96891.81;;;29.20;62.57
31346;BME280;21711;49.708;18.568;2023-07-29T10:24:14;96902.38;;;29.81;60.38
31346;BME280;21711;49.708;18.568;2023-07-29T10:26:46;96903.56;;;30.82;58.71
31346;BME280;21711;49.708;18.568;2023-07-29T10:29:19;96904.28;;;32.05;55.61
31346;BME280;21711;49.708;18.568;2023-07-29T10:31:53;96907.72;;;32.75;52.81
31346;BME280;21711;49.708;18.568;2023-07-29T10:34:21;96901.16;;;32.23;54.37
31346;BME280;21711;49.708;18.568;2023-07-29T10:36:50;96901.94;;;30.61;57.85
31346;BME280;21711;49.708;18.568;2023-07-29T10:39:19;96899.06;;;29.65;61.64
31346;BME280;21711;49.708;18.568;2023-07-29T10:42:00;96889.66;;;28.58;64.00
31346;BME280;21711;49.708;18.568;2023-07-29T10:47:17;96886.53;;;27.28;71.07
31346;BME280;21711;49.708;18.568;2023-07-29T10:49:56;96892.06;;;26.81;73.33
31346;BME280;21711;49.708;18.568;2023-07-29T10:55:03;96880.41;;;27.06;73.90
31346;BME280;21711;49.708;18.568;2023-07-29T10:57:49;96881.16;;;27.14;74.02
31346;BME280;21711;49.708;18.568;2023-07-29T11:00:20;96878.00;;;27.26;73.39
31346;BME280;21711;49.708;18.568;2023-07-29T11:03:00;96876.06;;;27.27;71.02
31346;BME280;21711;49.708;18.568;2023-07-29T11:05:50;96878.31;;;27.43;72.01
31346;BME280;21711;49.708;18.568;2023-07-29T11:08:18;96885.50;;;27.86;70.79
31346;BME280;21711;49.708;18.568;2023-07-29T11:11:09;96876.41;;;28.11;64.82
31346;BME280;21711;49.708;18.568;2023-07-29T11:13:39;96873.03;;;28.53;66.62
31346;BME280;21711;49.708;18.568;2023-07-29T11:16:09;96868.88;;;29.49;62.58
31346;BME280;21711;49.708;18.568;2023-07-29T11:18:37;96876.47;;;30.48;58.64
31346;BME280;21711;49.708;18.568;2023-07-29T11:21:05;96880.38;;;30.47;56.90
31346;BME280;21711;49.708;18.568;2023-07-29T11:23:36;96879.78;;;30.59;56.94
31346;BME280;21711;49.708;18.568;2023-07-29T11:26:04;96878.13;;;30.65;55.95
31346;BME280;21711;49.708;18.568;2023-07-29T11:28:38;96877.06;;;30.59;56.58
31346;BME280;21711;49.708;18.568;2023-07-29T11:31:07;96876.34;;;30.79;58.30
31346;BME280;21711;49.708;18.568;2023-07-29T11:33:38;96873.78;;;30.92;57.38
31346;BME280;21711;49.708;18.568;2023-07-29T11:36:05;96869.78;;;31.17;57.07
31346;BME280;21711;49.708;18.568;2023-07-29T11:38:33;96871.88;;;30.41;56.10
31346;BME280;21711;49.708;18.568;2023-07-29T11:41:04;96872.50;;;30.52;58.76
31346;BME280;21711;49.708;18.568;2023-07-29T11:43:35;96877.44;;;30.10;58.73
31346;BME280;21711;49.708;18.568;2023-07-29T11:46:03;96866.28;;;29.42;59.53
31346;BME280;21711;49.708;18.568;2023-07-29T11:48:33;96855.50;;;28.99;61.57
31346;BME280;21711;49.708;18.568;2023-07-29T11:51:00;96852.56;;;28.79;62.79
31346;BME280;21711;49.708;18.568;2023-07-29T11:53:29;96854.66;;;28.64;62.04
31346;BME280;21711;49.708;18.568;2023-07-29T11:55:58;96854.66;;;29.06;60.74
31346;BME280;21711;49.708;18.568;2023-07-29T11:58:26;96857.38;;;29.03;62.66
31346;BME280;21711;49.708;18.568;2023-07-29T12:00:54;96852.97;;;29.16;61.70
31346;BME280;21711;49.708;18.568;2023-07-29T12:03:22;96855.69;;;29.51;61.12
31346;BME280;21711;49.708;18.568;2023-07-29T12:05:50;96860.88;;;29.69;61.91
31346;BME280;21711;49.708;18.568;2023-07-29T12:08:18;96868.28;;;29.69;60.30
31346;BME280;21711;49.708;18.568;2023-07-29T12:10:45;96863.25;;;29.67;62.09
31346;BME280;21711;49.708;18.568;2023-07-29T12:13:13;96862.34;;;29.11;59.81
31346;BME280;21711;49.708;18.568;2023-07-29T12:15:43;96855.34;;;28.30;62.83
31346;BME280;21711;49.708;18.568;2023-07-29T12:18:12;96864.28;;;28.30;64.86
31346;BME280;21711;49.708;18.568;2023-07-29T12:20:40;96871.41;;;28.06;64.15
31346;BME280;21711;49.708;18.568;2023-07-29T12:23:07;96862.13;;;28.03;68.74
31346;BME280;21711;49.708;18.568;2023-07-29T12:25:35;96866.63;;;27.53;68.82
31346;BME280;21711;49.708;18.568;2023-07-29T12:28:06;96851.75;;;26.90;70.51
31346;BME280;21711;49.708;18.568;2023-07-29T12:30:40;96857.97;;;26.00;72.82
31346;BME280;21711;49.708;18.568;2023-07-29T12:33:08;96853.59;;;25.59;75.28
31346;BME280;21711;49.708;18.568;2023-07-29T12:35:37;96854.41;;;25.63;74.57
31346;BME280;21711;49.708;18.568;2023-07-29T12:38:05;96854.06;;;25.83;72.88
31346;BME280;21711;49.708;18.568;2023-07-29T12:40:32;96852.19;;;26.20;74.88
31346;BME280;21711;49.708;18.568;2023-07-29T12:42:59;96851.38;;;26.19;73.56
31346;BME280;21711;49.708;18.568;2023-07-29T12:45:27;96851.81;;;26.36;73.57
31346;BME280;21711;49.708;18.568;2023-07-29T12:47:56;96852.56;;;26.62;73.45
31346;BME280;21711;49.708;18.568;2023-07-29T12:50:23;96847.84;;;27.06;72.36
31346;BME280;21711;49.708;18.568;2023-07-29T12:52:51;96849.78;;;26.91;71.45
31346;BME280;21711;49.708;18.568;2023-07-29T12:55:18;96841.16;;;27.29;70.29
31346;BME280;21711;49.708;18.568;2023-07-29T12:57:50;96846.50;;;27.47;69.19
31346;BME280;21711;49.708;18.568;2023-07-29T13:00:18;96831.59;;;26.91;75.91
31346;BME280;21711;49.708;18.568;2023-07-29T13:02:45;96836.25;;;26.98;73.98